Aviation Digital Data Service (ADDS)

Output produced by METARs form (1311 UTC 25 February 2018)
found at http://aviationweather.gov/adds/metars/
 
KHPN 251258Z 2513/2612 09014G24KT 2SM RA BR OVC004 
     FM251600 09009KT 1SM RA BR OVC004 
     FM252000 04005KT 1 1/2SM BR VCSH OVC007 
     FM252200 VRB03KT 1 1/2SM BR OVC025 
     FM252300 VRB03KT 1SM BR OVC050 
     FM260000 00000KT 1SM BR OVC150 
     FM260400 VRB03KT 4SM BR OVC120 
     FM260700 VRB03KT P6SM OVC120 AMD NOT SKED